Chimbaj, Uzbekistan
Current Conditions -  °F | °C
As of 11:30 PM on Thursday 27 Nov 2014 (Local Time) from UTNN Reporting Station
Clear Clear  
Wind Chill: 18°   Ceiling: Unl
Heat Index: 18°   Visibility: 6mi
Dew Point:   Wind: 3mph
Humidity: 63%   Direction: 60°ENE
Pressure: 30.48"   Gusts: NA
Location:  42.95°N, 59.82°E
Report Text: UTNN 271830Z 06003KT CAVOK M08/M14 Q1032 R15/CLRD60 NOSIG
Loading
Personal Weather Stations






























Interactive Weather Map New forecast layout! Learn more

10-Day Weather Forecast

Advertisements
Track Severe Weather on mobile